Terminal Aerodrome Forecast
Issued by NWS

Home | Current Version | Previous Version | Text Only | Print | Product List | Glossary On
Versions: 1 2 3 4 5 6 7 8 9 10 11 12 13 14 15 16
648
FTUS42 KMLB 091550 AAA
TAFSUA
TAF AMD
KSUA 091550Z 0916/1012 35010KT P6SM VCSH SCT008 BKN025 OVC100
      TEMPO 0916/0918 5SM -RA BKN008
     FM091800 01012G18KT P6SM VCSH BKN060 BKN120
     FM100300 02011KT P6SM SCT050 BKN100=

USA.gov is the U.S. government's official web portal to all federal, state and local government web resources and services.